Time,TemperatureF,DewpointF,PressureIn,WindDirection,WindDirectionDegrees,WindSpeedMPH,WindSpeedGustMPH,Humidity,HourlyPrecipIn,Conditions,Clouds,dailyrainin,SoftwareType,DateUTC
2013-01-13 00:02:00,34.9,33.0,29.62,NNW,339,5.7,5.7,91,0.00,,,0.01,TxWx,2013-01-13 06:02:00,
2013-01-13 00:08:00,34.8,33.0,29.63,NNW,346,9.3,9.3,91,0.00,,,0.02,TxWx,2013-01-13 06:08:00,
2013-01-13 00:13:00,34.8,33.0,29.63,NNW,338,2.7,2.7,92,0.00,,,0.03,TxWx,2013-01-13 06:13:00,
2013-01-13 00:18:00,34.7,33.0,29.62,NNW,345,9.0,9.6,92,0.00,,,0.04,TxWx,2013-01-13 06:18:00,
2013-01-13 00:23:00,34.7,33.0,29.61,North,349,3.3,4.2,92,0.00,,,0.04,TxWx,2013-01-13 06:23:00,
2013-01-13 00:28:00,34.7,33.0,29.61,NNW,342,5.7,6.0,93,0.00,,,0.05,TxWx,2013-01-13 06:28:00,
2013-01-13 00:33:00,34.7,33.0,29.62,NNW,345,5.7,5.7,93,0.00,,,0.05,TxWx,2013-01-13 06:33:00,
2013-01-13 00:39:00,34.7,33.0,29.63,NNW,342,2.4,3.0,93,0.00,,,0.06,TxWx,2013-01-13 06:39:00,
2013-01-13 00:44:00,34.7,33.0,29.62,North,353,4.5,5.7,93,0.00,,,0.07,TxWx,2013-01-13 06:44:00,
2013-01-13 00:49:00,34.7,33.0,29.63,NNW,345,8.4,9.0,93,0.00,,,0.07,TxWx,2013-01-13 06:49:00,
2013-01-13 00:54:00,34.7,33.0,29.62,North,350,3.3,3.3,93,0.00,,,0.07,TxWx,2013-01-13 06:54:00,
2013-01-13 00:59:00,34.7,33.0,29.62,NNW,343,4.2,4.2,94,0.00,,,0.07,TxWx,2013-01-13 06:59:00,
2013-01-13 01:04:00,34.7,33.0,29.62,NNW,346,4.8,5.7,93,0.00,,,0.07,TxWx,2013-01-13 07:04:00,
2013-01-13 01:09:00,34.8,33.0,29.62,NNW,339,3.6,4.5,94,0.00,,,0.07,TxWx,2013-01-13 07:09:00,
2013-01-13 01:14:00,34.7,33.0,29.63,North,349,4.8,4.8,94,0.00,,,0.07,TxWx,2013-01-13 07:14:00,
2013-01-13 01:19:00,34.8,33.0,29.64,NNW,336,5.7,5.7,94,0.00,,,0.07,TxWx,2013-01-13 07:19:00,
2013-01-13 01:24:00,34.8,33.0,29.65,NNW,347,13.2,13.8,93,0.00,,,0.07,TxWx,2013-01-13 07:24:00,
2013-01-13 01:29:00,34.8,33.0,29.63,NNW,331,5.7,5.7,93,0.00,,,0.08,TxWx,2013-01-13 07:29:00,
2013-01-13 01:35:00,35.0,33.0,29.65,NNW,346,3.0,3.3,93,0.00,,,0.08,TxWx,2013-01-13 07:35:00,
2013-01-13 01:40:00,34.9,33.0,29.65,NNW,342,5.1,6.3,93,0.00,,,0.08,TxWx,2013-01-13 07:40:00,
2013-01-13 01:45:00,34.9,33.0,29.65,NNW,332,7.8,7.8,93,0.00,,,0.08,TxWx,2013-01-13 07:45:00,
2013-01-13 01:51:00,34.9,33.0,29.64,NNW,338,4.5,4.5,92,0.00,,,0.08,TxWx,2013-01-13 07:51:00,
2013-01-13 01:56:00,34.8,33.0,29.65,NNW,341,11.1,14.7,91,0.00,,,0.08,TxWx,2013-01-13 07:56:00,
2013-01-13 02:01:00,34.9,33.0,29.66,NNW,332,8.1,8.1,91,0.00,,,0.08,TxWx,2013-01-13 08:01:00,
2013-01-13 02:06:00,34.8,33.0,29.65,NNW,347,5.1,5.4,91,0.00,,,0.08,TxWx,2013-01-13 08:06:00,
2013-01-13 02:11:00,34.7,33.0,29.63,NNW,347,11.4,11.4,92,0.00,,,0.08,TxWx,2013-01-13 08:11:00,
2013-01-13 02:17:00,34.7,33.0,29.63,NNW,346,9.6,9.9,93,0.00,,,0.08,TxWx,2013-01-13 08:17:00,
2013-01-13 02:22:00,34.7,33.0,29.64,NNW,337,6.3,6.3,93,0.00,,,0.08,TxWx,2013-01-13 08:22:00,
2013-01-13 02:27:00,34.6,33.0,29.64,NNW,345,6.0,8.4,94,0.00,,,0.09,TxWx,2013-01-13 08:27:00,
2013-01-13 02:32:00,34.5,33.0,29.64,NNW,338,4.5,5.7,94,0.00,,,0.09,TxWx,2013-01-13 08:32:00,
2013-01-13 02:37:00,34.4,32.0,29.64,NNW,343,4.2,4.2,94,0.00,,,0.09,TxWx,2013-01-13 08:37:00,
2013-01-13 02:43:00,34.3,32.0,29.63,NNW,348,11.4,11.4,94,0.00,,,0.09,TxWx,2013-01-13 08:43:00,
2013-01-13 02:48:00,34.3,32.0,29.63,North,349,2.4,2.7,94,0.00,,,0.09,TxWx,2013-01-13 08:48:00,
2013-01-13 02:53:00,34.3,32.0,29.64,NNW,346,6.0,7.5,94,0.00,,,0.09,TxWx,2013-01-13 08:53:00,
2013-01-13 02:58:00,34.3,32.0,29.64,NNW,343,5.7,5.7,94,0.00,,,0.09,TxWx,2013-01-13 08:58:00,
2013-01-13 03:03:00,34.4,32.0,29.65,NNW,347,4.2,4.8,94,0.00,,,0.09,TxWx,2013-01-13 09:03:00,
2013-01-13 03:09:00,34.4,33.0,29.65,NNW,342,3.6,4.2,95,0.00,,,0.09,TxWx,2013-01-13 09:09:00,
2013-01-13 03:14:00,34.5,33.0,29.65,North,352,12.0,12.9,95,0.00,,,0.09,TxWx,2013-01-13 09:14:00,
2013-01-13 03:19:00,34.5,33.0,29.65,North,352,3.9,5.1,95,0.00,,,0.09,TxWx,2013-01-13 09:19:00,
2013-01-13 03:24:00,34.6,34.0,29.64,North,356,3.6,3.6,95,0.00,,,0.09,TxWx,2013-01-13 09:24:00,
2013-01-13 03:29:00,34.6,34.0,29.63,North,350,0.0,0.0,95,0.00,,,0.09,TxWx,2013-01-13 09:29:00,
2013-01-13 03:34:00,34.6,34.0,29.63,North,349,6.9,7.8,95,0.00,,,0.09,TxWx,2013-01-13 09:34:00,
2013-01-13 03:40:00,34.7,34.0,29.62,North,358,3.0,3.0,95,0.00,,,0.09,TxWx,2013-01-13 09:40:00,
2013-01-13 03:45:00,34.7,34.0,29.62,North,349,5.4,5.4,95,0.00,,,0.09,TxWx,2013-01-13 09:45:00,
2013-01-13 03:50:00,34.7,34.0,29.63,NNW,338,0.6,1.2,95,0.00,,,0.09,TxWx,2013-01-13 09:50:00,
2013-01-13 03:55:00,34.8,34.0,29.63,North,3,0.0,0.0,95,0.00,,,0.09,TxWx,2013-01-13 09:55:00,
2013-01-13 04:00:00,34.8,34.0,29.62,North,354,0.0,0.0,95,0.00,,,0.09,TxWx,2013-01-13 10:00:00,
2013-01-13 04:06:00,34.8,34.0,29.63,NNW,337,6.6,7.5,95,0.00,,,0.09,TxWx,2013-01-13 10:06:00,
2013-01-13 04:11:00,34.9,34.0,29.64,North,351,4.5,4.5,95,0.00,,,0.09,TxWx,2013-01-13 10:11:00,
2013-01-13 04:16:00,34.9,34.0,29.63,North,352,4.8,4.8,95,0.00,,,0.09,TxWx,2013-01-13 10:16:00,
2013-01-13 04:21:00,34.9,34.0,29.63,North,351,7.5,8.4,95,0.00,,,0.09,TxWx,2013-01-13 10:21:00,
2013-01-13 04:26:00,34.9,34.0,29.62,NNW,345,5.4,5.4,95,0.00,,,0.09,TxWx,2013-01-13 10:26:00,
2013-01-13 04:32:00,34.8,34.0,29.62,North,349,4.5,5.1,95,0.00,,,0.09,TxWx,2013-01-13 10:32:00,
2013-01-13 04:37:00,34.8,34.0,29.62,North,350,2.1,2.1,95,0.00,,,0.09,TxWx,2013-01-13 10:37:00,
2013-01-13 04:42:00,34.7,33.0,29.62,North,352,4.8,4.8,94,0.00,,,0.09,TxWx,2013-01-13 10:42:00,
2013-01-13 04:47:00,34.7,33.0,29.62,North,351,7.2,7.8,94,0.00,,,0.09,TxWx,2013-01-13 10:47:00,
2013-01-13 04:52:00,34.7,33.0,29.62,North,349,4.5,5.1,94,0.00,,,0.09,TxWx,2013-01-13 10:52:00,
2013-01-13 04:57:00,34.7,33.0,29.62,North,356,2.1,2.1,94,0.00,,,0.09,TxWx,2013-01-13 10:57:00,
2013-01-13 05:02:00,34.7,33.0,29.62,North,3,1.8,1.8,94,0.00,,,0.09,TxWx,2013-01-13 11:02:00,
2013-01-13 05:07:00,34.6,33.0,29.62,North,355,2.1,2.4,94,0.00,,,0.09,TxWx,2013-01-13 11:07:00,
2013-01-13 05:13:00,34.7,33.0,29.64,North,358,0.0,0.0,94,0.00,,,0.09,TxWx,2013-01-13 11:13:00,
2013-01-13 05:18:00,34.7,33.0,29.64,NNW,333,4.5,5.7,94,0.00,,,0.09,TxWx,2013-01-13 11:18:00,
2013-01-13 05:23:00,34.8,34.0,29.65,NW,324,2.1,2.7,95,0.00,,,0.09,TxWx,2013-01-13 11:23:00,
2013-01-13 05:28:00,34.8,34.0,29.66,NW,325,3.3,3.6,95,0.00,,,0.09,TxWx,2013-01-13 11:28:00,
2013-01-13 05:33:00,34.8,34.0,29.66,NW,320,0.0,0.0,95,0.00,,,0.09,TxWx,2013-01-13 11:33:00,
2013-01-13 05:38:00,34.8,34.0,29.66,NW,316,0.0,0.0,95,0.00,,,0.09,TxWx,2013-01-13 11:38:00,
2013-01-13 05:43:00,34.7,34.0,29.67,NW,316,0.0,0.0,95,0.00,,,0.09,TxWx,2013-01-13 11:43:00,
2013-01-13 05:48:00,34.7,34.0,29.67,NW,320,0.0,0.0,95,0.00,,,0.09,TxWx,2013-01-13 11:48:00,
2013-01-13 05:53:00,34.7,34.0,29.68,NW,316,0.0,0.0,95,0.00,,,0.10,TxWx,2013-01-13 11:53:00,
2013-01-13 05:58:00,34.7,34.0,29.69,NW,315,0.0,0.0,95,0.00,,,0.10,TxWx,2013-01-13 11:58:00,
2013-01-13 06:04:00,34.7,34.0,29.69,NW,316,0.0,0.0,95,0.00,,,0.10,TxWx,2013-01-13 12:04:00,
2013-01-13 06:09:00,34.8,34.0,29.69,NW,316,0.0,0.0,96,0.00,,,0.10,TxWx,2013-01-13 12:09:00,
2013-01-13 06:14:00,34.8,34.0,29.69,NW,314,0.0,0.0,96,0.00,,,0.10,TxWx,2013-01-13 12:14:00,
2013-01-13 06:19:00,34.8,34.0,29.70,NNW,343,0.0,0.3,96,0.00,,,0.10,TxWx,2013-01-13 12:19:00,
2013-01-13 06:24:00,34.8,34.0,29.70,NNW,343,0.0,0.0,96,0.00,,,0.11,TxWx,2013-01-13 12:24:00,
2013-01-13 06:29:00,34.8,34.0,29.70,NW,315,0.0,0.0,96,0.00,,,0.11,TxWx,2013-01-13 12:29:00,
2013-01-13 06:34:00,34.9,34.0,29.70,NW,318,0.0,0.0,96,0.00,,,0.11,TxWx,2013-01-13 12:34:00,
2013-01-13 06:40:00,34.9,34.0,29.68,NW,322,0.0,0.0,96,0.00,,,0.11,TxWx,2013-01-13 12:40:00,
2013-01-13 06:45:00,34.9,34.0,29.69,NNW,332,0.0,0.0,96,0.00,,,0.11,TxWx,2013-01-13 12:45:00,
2013-01-13 06:50:00,34.9,34.0,29.69,NW,316,0.0,0.0,96,0.00,,,0.11,TxWx,2013-01-13 12:50:00,
2013-01-13 06:55:00,34.9,34.0,29.70,NW,314,0.0,0.0,96,0.00,,,0.11,TxWx,2013-01-13 12:55:00,
2013-01-13 07:00:00,34.9,34.0,29.70,NW,319,0.0,0.0,96,0.00,,,0.11,TxWx,2013-01-13 13:00:00,
2013-01-13 07:05:00,35.0,34.0,29.69,NNW,328,0.0,0.0,96,0.00,,,0.11,TxWx,2013-01-13 13:05:00,
2013-01-13 07:11:00,34.9,34.0,29.69,NW,322,3.6,3.6,96,0.00,,,0.11,TxWx,2013-01-13 13:11:00,
2013-01-13 07:16:00,35.0,34.0,29.70,NW,313,1.8,2.1,96,0.00,,,0.11,TxWx,2013-01-13 13:16:00,
2013-01-13 07:21:00,35.0,34.0,29.70,NW,326,0.0,0.0,97,0.00,,,0.11,TxWx,2013-01-13 13:21:00,
2013-01-13 07:26:00,34.9,34.0,29.71,NW,326,2.4,2.4,97,0.00,,,0.11,TxWx,2013-01-13 13:26:00,
2013-01-13 07:32:00,34.9,34.0,29.71,NW,322,3.9,4.5,97,0.00,,,0.11,TxWx,2013-01-13 13:32:00,
2013-01-13 07:37:00,34.8,34.0,29.71,NW,315,7.2,7.2,96,0.00,,,0.11,TxWx,2013-01-13 13:37:00,
2013-01-13 07:42:00,34.8,34.0,29.71,NNW,329,3.9,3.9,96,0.00,,,0.11,TxWx,2013-01-13 13:42:00,
2013-01-13 07:47:00,34.7,34.0,29.72,NW,320,4.8,4.8,96,0.00,,,0.11,TxWx,2013-01-13 13:47:00,
2013-01-13 07:52:00,34.8,34.0,29.72,NNW,328,3.9,3.9,96,0.00,,,0.11,TxWx,2013-01-13 13:52:00,
2013-01-13 07:57:00,33.5,31.0,29.72,NW,324,6.9,9.3,95,0.00,,,0.12,TxWx,2013-01-13 13:57:00,
2013-01-13 08:02:00,32.9,31.0,29.72,NW,315,11.4,13.8,96,0.00,,,0.12,TxWx,2013-01-13 14:02:00,
2013-01-13 08:07:00,32.4,30.0,29.73,NW,317,8.1,11.1,96,0.00,,,0.12,TxWx,2013-01-13 14:07:00,
2013-01-13 08:13:00,32.1,30.0,29.72,NW,321,4.2,4.2,96,0.00,,,0.12,TxWx,2013-01-13 14:13:00,
2013-01-13 08:18:00,31.8,30.0,29.71,NW,320,2.1,2.1,96,0.00,,,0.12,TxWx,2013-01-13 14:18:00,
2013-01-13 08:23:00,31.6,30.0,29.72,NW,324,10.5,10.5,96,0.00,,,0.12,TxWx,2013-01-13 14:23:00,
2013-01-13 08:28:00,31.5,30.0,29.73,NW,320,13.5,13.5,97,0.00,,,0.12,TxWx,2013-01-13 14:28:00,
2013-01-13 08:33:00,31.4,29.0,29.73,NNW,328,7.5,9.3,97,0.00,,,0.12,TxWx,2013-01-13 14:33:00,
2013-01-13 08:38:00,31.4,29.0,29.73,NW,318,5.7,5.7,97,0.00,,,0.12,TxWx,2013-01-13 14:38:00,
2013-01-13 08:43:00,31.4,29.0,29.73,NW,318,4.8,5.1,97,0.00,,,0.12,TxWx,2013-01-13 14:43:00,
2013-01-13 08:48:00,31.3,29.0,29.74,NW,323,15.0,16.8,97,0.00,,,0.12,TxWx,2013-01-13 14:48:00,
2013-01-13 08:54:00,31.3,29.0,29.74,NW,321,6.9,6.9,97,0.00,,,0.12,TxWx,2013-01-13 14:54:00,
2013-01-13 08:59:00,31.4,29.0,29.74,NW,313,7.2,7.2,97,0.00,,,0.12,TxWx,2013-01-13 14:59:00,
2013-01-13 09:04:00,31.4,29.0,29.74,NW,325,9.9,12.9,97,0.00,,,0.12,TxWx,2013-01-13 15:04:00,
2013-01-13 09:09:00,31.4,29.0,29.74,NW,326,10.8,11.1,97,0.00,,,0.12,TxWx,2013-01-13 15:09:00,
2013-01-13 09:14:00,31.5,30.0,29.74,NW,325,5.1,5.1,97,0.00,,,0.12,TxWx,2013-01-13 15:14:00,
2013-01-13 09:19:00,31.5,30.0,29.74,NNW,330,3.9,4.2,97,0.00,,,0.12,TxWx,2013-01-13 15:19:00,
2013-01-13 09:24:00,31.7,30.0,29.74,NW,318,6.9,9.0,97,0.00,,,0.12,TxWx,2013-01-13 15:24:00,
2013-01-13 09:30:00,31.4,29.0,29.72,NW,323,12.3,12.3,97,0.00,,,0.12,TxWx,2013-01-13 15:30:00,
2013-01-13 09:35:00,31.4,29.0,29.68,NNW,331,7.2,7.2,97,0.00,,,0.12,TxWx,2013-01-13 15:35:00,
2013-01-13 09:40:00,31.0,29.0,29.69,NNW,334,3.0,3.0,96,0.00,,,0.12,TxWx,2013-01-13 15:40:00,
2013-01-13 09:46:00,31.0,29.0,29.69,NW,326,2.7,2.7,96,0.00,,,0.12,TxWx,2013-01-13 15:46:00,
2013-01-13 09:51:00,30.9,29.0,29.72,NW,326,5.4,5.4,96,0.00,,,0.12,TxWx,2013-01-13 15:51:00,
2013-01-13 09:56:00,30.8,29.0,29.78,NNW,330,9.3,9.3,96,0.00,,,0.12,TxWx,2013-01-13 15:56:00,
2013-01-13 10:01:00,30.9,29.0,29.79,NNW,332,6.0,6.9,96,0.00,,,0.12,TxWx,2013-01-13 16:01:00,
2013-01-13 10:06:00,30.7,29.0,29.77,NW,325,9.6,9.6,96,0.00,,,0.12,TxWx,2013-01-13 16:06:00,
2013-01-13 10:11:00,30.6,29.0,29.77,NNW,329,12.6,12.9,96,0.00,,,0.12,TxWx,2013-01-13 16:11:00,
2013-01-13 10:17:00,30.4,28.0,29.78,North,352,11.4,11.4,96,0.00,,,0.12,TxWx,2013-01-13 16:17:00,
2013-01-13 10:22:00,30.1,28.0,29.79,NW,324,20.4,20.7,95,0.00,,,0.12,TxWx,2013-01-13 16:22:00,
2013-01-13 10:27:00,30.1,28.0,29.79,NW,317,9.0,10.8,95,0.00,,,0.12,TxWx,2013-01-13 16:27:00,
2013-01-13 10:32:00,29.9,28.0,29.79,NW,320,5.7,6.0,95,0.00,,,0.12,TxWx,2013-01-13 16:32:00,
2013-01-13 10:37:00,30.0,28.0,29.78,NW,326,2.1,2.7,95,0.00,,,0.12,TxWx,2013-01-13 16:37:00,
2013-01-13 10:43:00,30.0,28.0,29.76,NNW,338,0.0,0.0,95,0.00,,,0.12,TxWx,2013-01-13 16:43:00,
2013-01-13 10:48:00,29.9,28.0,29.75,NNW,327,5.1,6.6,95,0.00,,,0.12,TxWx,2013-01-13 16:48:00,
2013-01-13 10:53:00,30.0,28.0,29.75,NNW,329,4.8,4.8,95,0.00,,,0.12,TxWx,2013-01-13 16:53:00,
2013-01-13 10:58:00,29.8,28.0,29.74,NNW,330,8.7,10.8,95,0.00,,,0.12,TxWx,2013-01-13 16:58:00,
2013-01-13 11:03:00,29.9,28.0,29.72,NNW,340,7.2,9.0,95,0.00,,,0.12,TxWx,2013-01-13 17:03:00,
2013-01-13 11:09:00,30.0,28.0,29.73,NNW,334,2.7,2.7,95,0.00,,,0.12,TxWx,2013-01-13 17:09:00,
2013-01-13 11:14:00,30.0,28.0,29.73,NNW,336,8.7,10.5,95,0.00,,,0.12,TxWx,2013-01-13 17:14:00,
2013-01-13 11:19:00,29.8,28.0,29.72,NNW,334,3.9,4.2,95,0.00,,,0.12,TxWx,2013-01-13 17:19:00,
2013-01-13 11:24:00,29.8,28.0,29.73,NW,316,3.6,4.5,95,0.00,,,0.12,TxWx,2013-01-13 17:24:00,
2013-01-13 11:29:00,29.7,28.0,29.73,NW,323,11.1,12.0,95,0.00,,,0.12,TxWx,2013-01-13 17:29:00,
2013-01-13 11:34:00,29.8,28.0,29.73,NNW,328,5.4,5.4,95,0.00,,,0.12,TxWx,2013-01-13 17:34:00,
2013-01-13 11:39:00,29.7,28.0,29.72,NW,323,6.3,6.3,95,0.00,,,0.12,TxWx,2013-01-13 17:39:00,
2013-01-13 11:45:00,29.6,28.0,29.72,NW,324,15.0,17.7,95,0.00,,,0.12,TxWx,2013-01-13 17:45:00,
2013-01-13 11:50:00,29.6,28.0,29.71,NNW,328,13.5,13.5,95,0.00,,,0.12,TxWx,2013-01-13 17:50:00,
2013-01-13 11:55:00,29.5,28.0,29.70,NNW,337,4.5,4.5,95,0.00,,,0.12,TxWx,2013-01-13 17:55:00,
2013-01-13 12:00:00,29.6,28.0,29.70,NNW,331,8.4,8.4,95,0.00,,,0.12,TxWx,2013-01-13 18:00:00,
2013-01-13 12:05:00,29.5,28.0,29.71,NNW,339,6.6,6.6,96,0.00,,,0.12,TxWx,2013-01-13 18:05:00,
2013-01-13 12:10:00,29.7,28.0,29.70,NNW,331,10.5,15.3,96,0.00,,,0.12,TxWx,2013-01-13 18:10:00,
2013-01-13 12:16:00,29.6,28.0,29.70,NNW,343,3.0,3.6,96,0.00,,,0.12,TxWx,2013-01-13 18:16:00,
2013-01-13 12:21:00,29.6,28.0,29.71,NW,324,5.1,6.6,96,0.00,,,0.12,TxWx,2013-01-13 18:21:00,
2013-01-13 12:26:00,29.8,28.0,29.73,North,352,4.5,4.5,96,0.00,,,0.12,TxWx,2013-01-13 18:26:00,
2013-01-13 12:31:00,29.7,28.0,29.75,NW,324,6.0,6.0,96,0.00,,,0.12,TxWx,2013-01-13 18:31:00,
2013-01-13 12:36:00,29.8,28.0,29.76,NNW,330,6.0,9.3,96,0.00,,,0.12,TxWx,2013-01-13 18:36:00,
2013-01-13 12:41:00,29.9,28.0,29.75,NNW,332,9.6,9.6,96,0.00,,,0.12,TxWx,2013-01-13 18:41:00,
2013-01-13 12:46:00,29.7,28.0,29.73,NNW,336,6.9,6.9,95,0.00,,,0.12,TxWx,2013-01-13 18:46:00,
2013-01-13 12:51:00,29.6,28.0,29.73,NNW,330,9.9,9.9,95,0.00,,,0.12,TxWx,2013-01-13 18:51:00,
2013-01-13 12:56:00,29.6,28.0,29.73,NW,326,7.2,7.8,95,0.00,,,0.12,TxWx,2013-01-13 18:56:00,
2013-01-13 13:01:00,29.6,28.0,29.74,NNW,330,7.5,7.5,95,0.00,,,0.12,TxWx,2013-01-13 19:01:00,
2013-01-13 13:07:00,29.7,28.0,29.74,NW,318,4.8,5.4,95,0.00,,,0.12,TxWx,2013-01-13 19:07:00,
2013-01-13 13:12:00,29.5,28.0,29.75,NW,321,7.8,9.0,95,0.00,,,0.12,TxWx,2013-01-13 19:12:00,
2013-01-13 13:17:00,29.4,26.0,29.74,NW,324,6.6,7.8,94,0.00,,,0.12,TxWx,2013-01-13 19:17:00,
2013-01-13 13:22:00,29.4,26.0,29.74,NW,314,3.9,4.8,94,0.00,,,0.12,TxWx,2013-01-13 19:22:00,
2013-01-13 13:27:00,29.3,26.0,29.75,NW,324,8.7,8.7,94,0.00,,,0.12,TxWx,2013-01-13 19:27:00,
2013-01-13 13:32:00,29.4,26.0,29.76,NW,316,3.0,3.6,94,0.00,,,0.12,TxWx,2013-01-13 19:32:00,
2013-01-13 13:37:00,29.2,26.0,29.76,NW,323,6.0,6.0,94,0.00,,,0.12,TxWx,2013-01-13 19:37:00,
2013-01-13 13:42:00,29.2,26.0,29.75,NW,313,3.0,3.0,94,0.00,,,0.12,TxWx,2013-01-13 19:42:00,
2013-01-13 13:48:00,28.9,26.0,29.73,NW,324,8.1,9.3,94,0.00,,,0.12,TxWx,2013-01-13 19:48:00,
2013-01-13 13:53:00,29.1,26.0,29.73,NW,324,0.0,0.0,94,0.00,,,0.12,TxWx,2013-01-13 19:53:00,
2013-01-13 13:58:00,29.2,27.0,29.74,NNW,336,0.0,0.0,95,0.00,,,0.12,TxWx,2013-01-13 19:58:00,
2013-01-13 14:03:00,29.1,26.0,29.73,NNW,330,0.0,0.0,94,0.00,,,0.12,TxWx,2013-01-13 20:03:00,
2013-01-13 14:08:00,29.2,26.0,29.74,NNW,341,0.0,0.0,94,0.00,,,0.12,TxWx,2013-01-13 20:08:00,
2013-01-13 14:14:00,29.3,26.0,29.74,NNW,337,3.3,3.3,94,0.00,,,0.12,TxWx,2013-01-13 20:14:00,
2013-01-13 14:19:00,29.2,26.0,29.76,NW,315,0.0,0.0,94,0.00,,,0.12,TxWx,2013-01-13 20:19:00,
2013-01-13 14:24:00,29.1,26.0,29.76,SSW,207,5.4,5.4,93,0.00,,,0.12,TxWx,2013-01-13 20:24:00,
2013-01-13 14:29:00,29.0,26.0,29.76,NNW,329,2.7,2.7,93,0.00,,,0.12,TxWx,2013-01-13 20:29:00,
2013-01-13 14:34:00,28.9,26.0,29.76,NNW,335,2.1,2.4,93,0.00,,,0.12,TxWx,2013-01-13 20:34:00,
2013-01-13 14:40:00,28.9,26.0,29.76,NNW,339,4.5,5.1,93,0.00,,,0.12,TxWx,2013-01-13 20:40:00,
2013-01-13 14:45:00,28.9,26.0,29.76,NNW,329,0.0,0.0,93,0.00,,,0.12,TxWx,2013-01-13 20:45:00,
2013-01-13 14:50:00,28.9,26.0,29.76,NW,318,0.0,0.0,92,0.00,,,0.12,TxWx,2013-01-13 20:50:00,
2013-01-13 14:55:00,28.8,26.0,29.76,NW,321,4.2,5.1,92,0.00,,,0.12,TxWx,2013-01-13 20:55:00,
2013-01-13 15:00:00,28.9,26.0,29.75,NW,321,3.0,3.6,92,0.00,,,0.12,TxWx,2013-01-13 21:00:00,
2013-01-13 15:05:00,28.7,26.0,29.76,NW,325,3.6,3.9,92,0.00,,,0.12,TxWx,2013-01-13 21:05:00,
2013-01-13 15:11:00,28.8,26.0,29.76,NW,325,7.8,7.8,92,0.00,,,0.12,TxWx,2013-01-13 21:11:00,
2013-01-13 15:16:00,28.6,26.0,29.76,NW,324,6.6,6.6,92,0.00,,,0.12,TxWx,2013-01-13 21:16:00,
2013-01-13 15:21:00,28.6,26.0,29.77,North,356,4.5,4.5,92,0.00,,,0.12,TxWx,2013-01-13 21:21:00,
2013-01-13 15:26:00,28.4,25.0,29.77,NW,316,8.1,8.4,92,0.00,,,0.12,TxWx,2013-01-13 21:26:00,
2013-01-13 15:31:00,28.5,25.0,29.78,NW,313,6.0,6.0,92,0.00,,,0.12,TxWx,2013-01-13 21:31:00,
2013-01-13 15:36:00,28.5,25.0,29.78,NW,322,0.0,0.0,92,0.00,,,0.12,TxWx,2013-01-13 21:36:00,
2013-01-13 15:42:00,28.4,25.0,29.78,North,358,0.0,0.0,93,0.00,,,0.12,TxWx,2013-01-13 21:42:00,
2013-01-13 15:47:00,28.3,25.0,29.78,NW,325,6.3,6.3,93,0.00,,,0.12,TxWx,2013-01-13 21:47:00,
2013-01-13 15:52:00,28.0,25.0,29.78,NNW,327,5.7,7.8,93,0.00,,,0.12,TxWx,2013-01-13 21:52:00,
2013-01-13 15:58:00,27.9,25.0,29.78,NW,315,5.1,5.1,93,0.00,,,0.12,TxWx,2013-01-13 21:58:00,
2013-01-13 16:03:00,27.7,25.0,29.79,NW,325,5.1,6.0,94,0.00,,,0.12,TxWx,2013-01-13 22:03:00,
2013-01-13 16:08:00,27.6,25.0,29.80,NW,317,7.2,7.5,94,0.00,,,0.12,TxWx,2013-01-13 22:08:00,
2013-01-13 16:13:00,27.5,24.0,29.80,NW,321,7.8,8.7,93,0.00,,,0.12,TxWx,2013-01-13 22:13:00,
2013-01-13 16:18:00,27.3,24.0,29.80,NW,319,12.9,12.9,93,0.00,,,0.12,TxWx,2013-01-13 22:18:00,
2013-01-13 16:23:00,27.3,24.0,29.80,NW,325,7.2,7.2,93,0.00,,,0.12,TxWx,2013-01-13 22:23:00,
2013-01-13 16:28:00,27.1,24.0,29.80,NNW,327,8.4,8.4,92,0.00,,,0.12,TxWx,2013-01-13 22:28:00,
2013-01-13 16:34:00,26.9,24.0,29.80,NW,315,9.9,10.5,92,0.00,,,0.12,TxWx,2013-01-13 22:34:00,
2013-01-13 16:39:00,26.8,24.0,29.81,NW,314,12.3,13.8,93,0.00,,,0.12,TxWx,2013-01-13 22:39:00,
2013-01-13 16:44:00,26.6,24.0,29.81,NW,313,7.2,9.3,92,0.00,,,0.12,TxWx,2013-01-13 22:44:00,
2013-01-13 16:49:00,26.6,24.0,29.82,NW,322,5.7,6.0,92,0.00,,,0.12,TxWx,2013-01-13 22:49:00,
2013-01-13 16:54:00,26.3,22.0,29.82,NW,317,7.8,8.4,90,0.00,,,0.12,TxWx,2013-01-13 22:54:00,
2013-01-13 16:59:00,26.5,23.0,29.82,NW,314,4.8,5.4,90,0.00,,,0.12,TxWx,2013-01-13 22:59:00,
2013-01-13 17:05:00,26.2,22.0,29.83,NW,322,5.7,5.7,89,0.00,,,0.12,TxWx,2013-01-13 23:05:00,
2013-01-13 17:10:00,26.2,22.0,29.83,NW,318,7.8,9.3,89,0.00,,,0.12,TxWx,2013-01-13 23:10:00,
2013-01-13 17:15:00,26.1,22.0,29.83,NNE,29,9.9,11.1,90,0.00,,,0.12,TxWx,2013-01-13 23:15:00,
2013-01-13 17:20:00,26.0,23.0,29.84,NE,46,7.8,9.0,91,0.00,,,0.12,TxWx,2013-01-13 23:20:00,
2013-01-13 17:26:00,25.9,23.0,29.84,NW,314,10.2,10.2,91,0.00,,,0.12,TxWx,2013-01-13 23:26:00,
2013-01-13 17:31:00,25.8,23.0,29.84,NW,316,8.1,8.1,91,0.00,,,0.12,TxWx,2013-01-13 23:31:00,
2013-01-13 17:36:00,25.7,23.0,29.84,NW,313,7.2,7.2,92,0.00,,,0.12,TxWx,2013-01-13 23:36:00,
2013-01-13 17:41:00,25.7,23.0,29.84,NW,319,3.6,3.6,92,0.00,,,0.12,TxWx,2013-01-13 23:41:00,
2013-01-13 17:46:00,25.7,23.0,29.84,North,355,6.0,6.0,92,0.00,,,0.12,TxWx,2013-01-13 23:46:00,
2013-01-13 17:51:00,25.6,23.0,29.85,North,353,10.2,11.1,92,0.00,,,0.12,TxWx,2013-01-13 23:51:00,
2013-01-13 17:56:00,25.5,22.0,29.85,North,354,9.0,9.6,92,0.00,,,0.12,TxWx,2013-01-13 23:56:00,
2013-01-13 18:01:00,25.0,22.0,29.86,NW,315,9.0,9.6,91,0.00,,,0.12,TxWx,2013-01-14 00:01:00,
2013-01-13 18:07:00,24.7,22.0,29.86,NE,46,9.3,9.3,91,0.00,,,0.12,TxWx,2013-01-14 00:07:00,
2013-01-13 18:12:00,24.3,20.0,29.86,NW,316,13.8,14.4,89,0.00,,,0.12,TxWx,2013-01-14 00:12:00,
2013-01-13 18:17:00,24.4,20.0,29.86,North,354,10.8,10.8,89,0.00,,,0.12,TxWx,2013-01-14 00:17:00,
2013-01-13 18:22:00,23.8,19.0,29.86,North,355,14.1,14.1,85,0.00,,,0.12,TxWx,2013-01-14 00:22:00,
2013-01-13 18:27:00,23.7,19.0,29.87,NW,314,5.1,7.5,85,0.00,,,0.12,TxWx,2013-01-14 00:27:00,
2013-01-13 18:32:00,23.4,18.0,29.87,NW,314,10.2,11.4,85,0.00,,,0.12,TxWx,2013-01-14 00:32:00,
2013-01-13 18:37:00,23.3,18.0,29.88,NW,316,11.4,12.6,85,0.00,,,0.12,TxWx,2013-01-14 00:37:00,
2013-01-13 18:42:00,23.0,17.0,29.88,North,354,15.3,15.9,82,0.00,,,0.12,TxWx,2013-01-14 00:42:00,
2013-01-13 18:47:00,23.0,18.0,29.89,NW,314,14.4,14.4,84,0.00,,,0.12,TxWx,2013-01-14 00:47:00,
2013-01-13 18:53:00,23.1,18.0,29.89,NW,316,8.7,9.3,85,0.00,,,0.12,TxWx,2013-01-14 00:53:00,
2013-01-13 18:58:00,22.9,18.0,29.89,North,358,15.9,16.8,86,0.00,,,0.12,TxWx,2013-01-14 00:58:00,
2013-01-13 19:03:00,22.6,18.0,29.88,NW,318,14.4,16.2,86,0.00,,,0.12,TxWx,2013-01-14 01:03:00,
2013-01-13 19:08:00,22.3,17.0,29.89,NW,316,14.1,14.7,85,0.00,,,0.12,TxWx,2013-01-14 01:08:00,
2013-01-13 19:14:00,22.1,17.0,29.89,North,354,12.6,12.6,85,0.00,,,0.12,TxWx,2013-01-14 01:14:00,
2013-01-13 19:19:00,22.1,17.0,29.89,NW,315,8.1,8.1,86,0.00,,,0.12,TxWx,2013-01-14 01:19:00,
2013-01-13 19:24:00,21.6,16.0,29.90,NW,321,14.4,14.4,83,0.00,,,0.12,TxWx,2013-01-14 01:24:00,
2013-01-13 19:29:00,21.6,16.0,29.90,North,356,15.0,15.3,82,0.00,,,0.12,TxWx,2013-01-14 01:29:00,
2013-01-13 19:34:00,21.5,16.0,29.90,East,93,9.6,9.9,83,0.00,,,0.12,TxWx,2013-01-14 01:34:00,
2013-01-13 19:40:00,21.4,15.0,29.90,North,355,9.6,10.8,82,0.00,,,0.12,TxWx,2013-01-14 01:40:00,
2013-01-13 19:45:00,21.2,15.0,29.90,NW,313,13.5,13.5,82,0.00,,,0.12,TxWx,2013-01-14 01:45:00,
2013-01-13 19:50:00,21.3,16.0,29.90,NW,319,6.6,6.6,83,0.00,,,0.12,TxWx,2013-01-14 01:50:00,
2013-01-13 19:55:00,21.2,16.0,29.90,NW,326,6.3,6.9,83,0.00,,,0.12,TxWx,2013-01-14 01:55:00,
2013-01-13 20:00:00,21.1,16.0,29.91,North,355,10.5,12.3,83,0.00,,,0.12,TxWx,2013-01-14 02:00:00,
2013-01-13 20:05:00,21.1,16.0,29.91,NW,315,8.1,8.1,84,0.00,,,0.12,TxWx,2013-01-14 02:05:00,
2013-01-13 20:10:00,20.8,16.0,29.91,North,355,18.3,18.3,84,0.00,,,0.12,TxWx,2013-01-14 02:10:00,
2013-01-13 20:16:00,20.7,16.0,29.91,NW,315,15.0,15.0,84,0.00,,,0.12,TxWx,2013-01-14 02:16:00,
2013-01-13 20:21:00,20.8,16.0,29.91,NW,314,8.4,9.3,85,0.00,,,0.12,TxWx,2013-01-14 02:21:00,
2013-01-13 20:26:00,20.7,16.0,29.92,North,354,9.9,10.8,85,0.00,,,0.12,TxWx,2013-01-14 02:26:00,
2013-01-13 20:31:00,20.4,15.0,29.92,North,355,16.2,17.1,83,0.00,,,0.12,TxWx,2013-01-14 02:31:00,
2013-01-13 20:36:00,20.0,15.0,29.92,North,354,10.2,10.5,83,0.00,,,0.12,TxWx,2013-01-14 02:36:00,
2013-01-13 20:41:00,19.9,15.0,29.93,NW,317,12.6,12.9,83,0.00,,,0.12,TxWx,2013-01-14 02:41:00,
2013-01-13 20:47:00,20.0,15.0,29.93,NW,321,5.7,6.0,84,0.00,,,0.12,TxWx,2013-01-14 02:47:00,
2013-01-13 20:52:00,19.5,14.0,29.93,East,85,13.8,15.0,81,0.00,,,0.12,TxWx,2013-01-14 02:52:00,
2013-01-13 20:57:00,19.5,14.0,29.93,NW,316,14.4,14.7,83,0.00,,,0.12,TxWx,2013-01-14 02:57:00,
2013-01-13 21:02:00,19.5,15.0,29.93,North,11,6.0,6.0,83,0.00,,,0.12,TxWx,2013-01-14 03:02:00,
2013-01-13 21:07:00,19.3,14.0,29.94,NW,315,7.2,8.7,83,0.00,,,0.12,TxWx,2013-01-14 03:07:00,
2013-01-13 21:12:00,19.2,13.0,29.94,NW,314,9.6,9.6,82,0.00,,,0.12,TxWx,2013-01-14 03:12:00,
2013-01-13 21:17:00,19.0,13.0,29.94,NW,317,10.2,10.2,82,0.00,,,0.12,TxWx,2013-01-14 03:17:00,
2013-01-13 21:23:00,19.0,14.0,29.94,NW,315,8.1,8.7,83,0.00,,,0.12,TxWx,2013-01-14 03:23:00,
2013-01-13 21:28:00,19.2,14.0,29.94,North,356,4.8,4.8,84,0.00,,,0.12,TxWx,2013-01-14 03:28:00,
2013-01-13 21:33:00,19.0,14.0,29.94,North,358,7.2,8.1,83,0.00,,,0.12,TxWx,2013-01-14 03:33:00,
2013-01-13 21:38:00,18.9,14.0,29.95,NW,313,5.7,5.7,84,0.00,,,0.12,TxWx,2013-01-14 03:38:00,
2013-01-13 21:43:00,18.8,14.0,29.95,NW,320,7.8,8.7,83,0.00,,,0.12,TxWx,2013-01-14 03:43:00,
2013-01-13 21:49:00,18.6,13.0,29.95,NW,316,10.5,10.5,82,0.00,,,0.12,TxWx,2013-01-14 03:49:00,
2013-01-13 21:54:00,18.2,12.0,29.96,NW,317,10.2,11.7,82,0.00,,,0.12,TxWx,2013-01-14 03:54:00,
2013-01-13 21:59:00,18.0,12.0,29.96,North,2,9.6,9.6,82,0.00,,,0.12,TxWx,2013-01-14 03:59:00,
2013-01-13 22:04:00,18.2,12.0,29.96,North,3,10.2,10.2,82,0.00,,,0.12,TxWx,2013-01-14 04:04:00,
2013-01-13 22:10:00,18.1,12.0,29.96,North,2,11.1,11.7,82,0.00,,,0.12,TxWx,2013-01-14 04:10:00,
2013-01-13 22:15:00,17.9,12.0,29.97,NW,313,11.4,12.0,82,0.00,,,0.12,TxWx,2013-01-14 04:15:00,
2013-01-13 22:20:00,17.9,12.0,29.97,North,2,15.9,15.9,82,0.00,,,0.12,TxWx,2013-01-14 04:20:00,
2013-01-13 22:25:00,17.6,12.0,29.97,NNE,13,13.8,14.7,81,0.00,,,0.12,TxWx,2013-01-14 04:25:00,
2013-01-13 22:31:00,17.5,11.0,29.97,North,4,10.2,10.5,81,0.00,,,0.12,TxWx,2013-01-14 04:31:00,
2013-01-13 22:36:00,17.5,12.0,29.97,North,1,13.8,14.7,82,0.00,,,0.12,TxWx,2013-01-14 04:36:00,
2013-01-13 22:41:00,17.4,11.0,29.98,NW,316,6.0,6.0,82,0.00,,,0.12,TxWx,2013-01-14 04:41:00,
2013-01-13 22:46:00,17.1,11.0,29.98,NW,317,12.9,13.2,81,0.00,,,0.12,TxWx,2013-01-14 04:46:00,
2013-01-13 22:51:00,16.9,11.0,29.99,North,1,7.5,8.1,81,0.00,,,0.12,TxWx,2013-01-14 04:51:00,
2013-01-13 22:56:00,16.9,11.0,29.99,North,1,10.2,11.4,82,0.00,,,0.12,TxWx,2013-01-14 04:56:00,
2013-01-13 23:00:00,16.9,11.0,30.00,North,2,10.8,10.8,82,0.00,,,0.12,TxWx,2013-01-14 05:00:00,
2013-01-13 23:05:00,16.7,11.0,30.00,NW,314,11.7,11.7,82,0.00,,,0.00,TxWx,2013-01-14 05:05:00,
2013-01-13 23:06:00,16.8,11.0,29.99,NW,314,7.5,8.7,82,0.00,,,0.00,TxWx,2013-01-14 05:06:00,
2013-01-13 23:08:00,16.7,11.0,30.00,NW,313,10.5,10.5,82,0.00,,,0.00,TxWx,2013-01-14 05:08:00,
2013-01-13 23:13:00,16.5,11.0,30.00,NW,315,8.1,8.7,82,0.00,,,0.00,TxWx,2013-01-14 05:13:00,
2013-01-13 23:18:00,16.4,10.0,30.00,NW,317,14.4,14.7,81,0.00,,,0.00,TxWx,2013-01-14 05:18:00,
2013-01-13 23:23:00,16.0,10.0,30.00,North,2,10.8,11.7,81,0.00,,,0.00,TxWx,2013-01-14 05:23:00,
2013-01-13 23:28:00,16.1,10.0,30.00,North,2,9.9,12.6,82,0.00,,,0.00,TxWx,2013-01-14 05:28:00,
2013-01-13 23:34:00,15.9,10.0,30.01,North,2,9.6,9.6,82,0.00,,,0.00,TxWx,2013-01-14 05:34:00,
2013-01-13 23:39:00,15.8,10.0,30.00,North,3,11.4,11.4,81,0.00,,,0.00,TxWx,2013-01-14 05:39:00,
2013-01-13 23:44:00,15.6,10.0,30.01,North,3,8.7,9.6,81,0.00,,,0.00,TxWx,2013-01-14 05:44:00,
2013-01-13 23:49:00,15.5,10.0,30.01,North,2,10.8,11.1,81,0.00,,,0.00,TxWx,2013-01-14 05:49:00,
2013-01-13 23:54:00,15.8,10.0,30.02,North,1,13.5,13.5,82,0.00,,,0.00,TxWx,2013-01-14 05:54:00,
2013-01-13 23:59:00,15.6,10.0,30.03,North,1,9.9,10.5,82,0.00,,,0.00,TxWx,2013-01-14 05:59:00,